Startpagina
METAR-TAF:

METAR-TAF

Vliegvelden :

Kosrae, Micronesië

breedte: 05-21N, lengte: 162-57E, hoogte: 3 m

Actueel weer

Dit bericht is 2 uur en het 28 minuten geleden gemaakt, om 03:50 UTC
Wind 6 kt uit het oostzuidoosten
Temperatuur 27°C
Vochtigheid 89%
Druk 1007 hPa
Zicht: 16.1 km
Gebroken wolken op 1200 ft, Cumulonimbus.
Gebroken wolken op 13000 ft
Geheel bewolkt op 29000 ft

METAR: PTSA 200350Z 12006KT 10SM BKN012CB BKN130 OVC290 27/25 A2975 RMK CB DSNT N LAST

Tijdstip: 17:18 (06:18 UTC)

Verwachting

Dit bericht is 3 uur en het 52 minuten geleden gemaakt, om 02:26 UTC
Verwachting geldig van 20 om 02 UTC tot 20 om 24 UTC
Wind 4 kt uit variabele richting
Zicht: 10 km
Verspreide wolken op 1500 ft
Verspreide wolken op 3000 ft
Gebroken wolken op 13000 ft
buien in de omgeving
Tijdelijke
van 20 om 03 UTC tot 20 om 05 UTC
Zicht: 6.4 km
Gebroken wolken op 1500 ft
Geheel bewolkt op 3000 ft
regenbuien

TAF: PTSA 200226Z 2002/2024 VRB04KT P6SM VCSH SCT015 SCT030 BKN130 TEMPO 2003/2005 4SM SHRA BKN015 OVC030

Waarnemingen en weersverwachtingen van meer dan 4000 vliegvelden (METAR en TAF).

De beschikbare stations zijn de gele en rode punten op de kaart.

Ga met uw muis naar het station om de naam te zien.

Klik dan om waarnemingen en weersverwachtingen te zien.

kaart wijzigen: klik op de groene knoppen met een zwart kruis om in te zoomen, op de groene knop met een streepje om uit te zoomen of op de groene pijlen voor aangrenzende kaarten.


METAR-TAF: